sensor_id;sensor_type;location;lat;lon;timestamp;temperature;humidity
18581;DHT22;9420;50.876;7.012;2023-12-20T00:00:12;7.40;91.38
18581;DHT22;9420;50.876;7.012;2023-12-20T00:02:39;7.36;91.51
18581;DHT22;9420;50.876;7.012;2023-12-20T00:05:10;7.41;91.68
18581;DHT22;9420;50.876;7.012;2023-12-20T00:07:36;7.41;91.80
18581;DHT22;9420;50.876;7.012;2023-12-20T00:10:03;7.47;91.52
18581;DHT22;9420;50.876;7.012;2023-12-20T00:12:32;7.47;91.47
18581;DHT22;9420;50.876;7.012;2023-12-20T00:15:00;7.47;91.56
18581;DHT22;9420;50.876;7.012;2023-12-20T00:17:27;7.48;91.43
18581;DHT22;9420;50.876;7.012;2023-12-20T00:19:53;7.50;91.52
18581;DHT22;9420;50.876;7.012;2023-12-20T00:22:20;7.51;91.58
18581;DHT22;9420;50.876;7.012;2023-12-20T00:24:46;7.52;91.35
18581;DHT22;9420;50.876;7.012;2023-12-20T00:27:13;7.52;91.38
18581;DHT22;9420;50.876;7.012;2023-12-20T00:29:41;7.52;91.50
18581;DHT22;9420;50.876;7.012;2023-12-20T00:32:08;7.58;91.65
18581;DHT22;9420;50.876;7.012;2023-12-20T00:34:35;7.55;91.72
18581;DHT22;9420;50.876;7.012;2023-12-20T00:37:01;7.54;91.78
18581;DHT22;9420;50.876;7.012;2023-12-20T00:39:28;7.56;91.87
18581;DHT22;9420;50.876;7.012;2023-12-20T00:41:55;7.56;91.68
18581;DHT22;9420;50.876;7.012;2023-12-20T00:44:21;7.58;91.64
18581;DHT22;9420;50.876;7.012;2023-12-20T00:46:49;7.62;91.49
18581;DHT22;9420;50.876;7.012;2023-12-20T00:49:16;7.58;91.29
18581;DHT22;9420;50.876;7.012;2023-12-20T00:51:43;7.54;91.50
18581;DHT22;9420;50.876;7.012;2023-12-20T00:54:09;7.48;91.60
18581;DHT22;9420;50.876;7.012;2023-12-20T00:56:36;7.48;91.71
18581;DHT22;9420;50.876;7.012;2023-12-20T00:59:02;7.47;91.26
18581;DHT22;9420;50.876;7.012;2023-12-20T01:01:29;7.45;91.27
18581;DHT22;9420;50.876;7.012;2023-12-20T01:03:59;7.41;91.15
18581;DHT22;9420;50.876;7.012;2023-12-20T01:06:26;7.41;91.33
18581;DHT22;9420;50.876;7.012;2023-12-20T01:08:52;7.40;91.08
18581;DHT22;9420;50.876;7.012;2023-12-20T01:11:19;7.38;91.14
18581;DHT22;9420;50.876;7.012;2023-12-20T01:13:45;7.38;91.03
18581;DHT22;9420;50.876;7.012;2023-12-20T01:16:12;7.31;91.25
18581;DHT22;9420;50.876;7.012;2023-12-20T01:18:39;7.31;90.95
18581;DHT22;9420;50.876;7.012;2023-12-20T01:21:07;7.28;91.10
18581;DHT22;9420;50.876;7.012;2023-12-20T01:23:36;7.34;90.45
18581;DHT22;9420;50.876;7.012;2023-12-20T01:26:03;7.24;90.37
18581;DHT22;9420;50.876;7.012;2023-12-20T01:28:30;7.15;90.61
18581;DHT22;9420;50.876;7.012;2023-12-20T01:30:57;7.00;90.87
18581;DHT22;9420;50.876;7.012;2023-12-20T01:33:24;7.04;90.66
18581;DHT22;9420;50.876;7.012;2023-12-20T01:35:50;6.92;91.02
18581;DHT22;9420;50.876;7.012;2023-12-20T01:38:18;6.90;91.05
18581;DHT22;9420;50.876;7.012;2023-12-20T01:40:45;6.96;90.89
18581;DHT22;9420;50.876;7.012;2023-12-20T01:43:12;7.07;90.95
18581;DHT22;9420;50.876;7.012;2023-12-20T01:45:39;7.04;90.72
18581;DHT22;9420;50.876;7.012;2023-12-20T01:48:07;7.11;90.14
18581;DHT22;9420;50.876;7.012;2023-12-20T01:50:35;7.13;90.04
18581;DHT22;9420;50.876;7.012;2023-12-20T01:53:03;7.06;89.79
18581;DHT22;9420;50.876;7.012;2023-12-20T01:55:33;6.97;90.28
18581;DHT22;9420;50.876;7.012;2023-12-20T01:58:01;7.03;89.66
18581;DHT22;9420;50.876;7.012;2023-12-20T02:00:28;6.93;89.83
18581;DHT22;9420;50.876;7.012;2023-12-20T02:02:55;6.99;88.87
18581;DHT22;9420;50.876;7.012;2023-12-20T02:05:22;7.06;87.95
18581;DHT22;9420;50.876;7.012;2023-12-20T02:07:48;6.89;88.25
18581;DHT22;9420;50.876;7.012;2023-12-20T02:10:15;6.97;87.23
18581;DHT22;9420;50.876;7.012;2023-12-20T02:12:43;6.85;87.43
18581;DHT22;9420;50.876;7.012;2023-12-20T02:15:10;6.69;87.04
18581;DHT22;9420;50.876;7.012;2023-12-20T02:17:38;6.75;86.43
18581;DHT22;9420;50.876;7.012;2023-12-20T02:20:06;6.64;86.76
18581;DHT22;9420;50.876;7.012;2023-12-20T02:22:35;6.59;86.96
18581;DHT22;9420;50.876;7.012;2023-12-20T02:25:01;6.42;87.51
18581;DHT22;9420;50.876;7.012;2023-12-20T02:27:28;6.42;87.04
18581;DHT22;9420;50.876;7.012;2023-12-20T02:29:56;6.31;87.46
18581;DHT22;9420;50.876;7.012;2023-12-20T02:32:24;6.35;86.96
18581;DHT22;9420;50.876;7.012;2023-12-20T02:34:52;6.16;87.98
18581;DHT22;9420;50.876;7.012;2023-12-20T02:37:18;6.10;88.10
18581;DHT22;9420;50.876;7.012;2023-12-20T02:39:46;6.06;88.04
18581;DHT22;9420;50.876;7.012;2023-12-20T02:42:13;6.00;88.14
18581;DHT22;9420;50.876;7.012;2023-12-20T02:44:39;5.96;88.35
18581;DHT22;9420;50.876;7.012;2023-12-20T02:47:06;6.00;88.06
18581;DHT22;9420;50.876;7.012;2023-12-20T02:49:33;5.98;87.97
18581;DHT22;9420;50.876;7.012;2023-12-20T02:51:59;6.04;87.99
18581;DHT22;9420;50.876;7.012;2023-12-20T02:54:26;5.89;88.45
18581;DHT22;9420;50.876;7.012;2023-12-20T02:56:54;5.91;87.98
18581;DHT22;9420;50.876;7.012;2023-12-20T02:59:20;5.91;87.85
18581;DHT22;9420;50.876;7.012;2023-12-20T03:01:47;5.90;87.79
18581;DHT22;9420;50.876;7.012;2023-12-20T03:04:13;5.89;88.19
18581;DHT22;9420;50.876;7.012;2023-12-20T03:06:40;5.91;88.13
18581;DHT22;9420;50.876;7.012;2023-12-20T03:09:07;6.01;87.66
18581;DHT22;9420;50.876;7.012;2023-12-20T03:11:33;6.00;88.00
18581;DHT22;9420;50.876;7.012;2023-12-20T03:14:01;5.97;88.09
18581;DHT22;9420;50.876;7.012;2023-12-20T03:16:28;6.08;87.58
18581;DHT22;9420;50.876;7.012;2023-12-20T03:18:56;6.13;87.29
18581;DHT22;9420;50.876;7.012;2023-12-20T03:21:23;6.16;87.49
18581;DHT22;9420;50.876;7.012;2023-12-20T03:23:49;6.17;87.34
18581;DHT22;9420;50.876;7.012;2023-12-20T03:26:16;6.16;87.48
18581;DHT22;9420;50.876;7.012;2023-12-20T03:28:42;6.14;87.76
18581;DHT22;9420;50.876;7.012;2023-12-20T03:31:10;6.21;87.33
18581;DHT22;9420;50.876;7.012;2023-12-20T03:33:37;6.18;87.41
18581;DHT22;9420;50.876;7.012;2023-12-20T03:36:04;6.21;87.29
18581;DHT22;9420;50.876;7.012;2023-12-20T03:38:30;6.20;87.14
18581;DHT22;9420;50.876;7.012;2023-12-20T03:40:57;6.28;87.15
18581;DHT22;9420;50.876;7.012;2023-12-20T03:43:24;6.27;87.12
18581;DHT22;9420;50.876;7.012;2023-12-20T03:45:50;6.34;86.72
18581;DHT22;9420;50.876;7.012;2023-12-20T03:48:18;6.37;86.82
18581;DHT22;9420;50.876;7.012;2023-12-20T03:50:44;6.32;86.94
18581;DHT22;9420;50.876;7.012;2023-12-20T03:53:11;6.32;87.40
18581;DHT22;9420;50.876;7.012;2023-12-20T03:55:38;6.31;87.20
18581;DHT22;9420;50.876;7.012;2023-12-20T03:58:04;6.25;87.37
18581;DHT22;9420;50.876;7.012;2023-12-20T04:00:31;6.31;87.36
18581;DHT22;9420;50.876;7.012;2023-12-20T04:02:58;6.34;86.83
18581;DHT22;9420;50.876;7.012;2023-12-20T04:05:26;6.32;86.93
18581;DHT22;9420;50.876;7.012;2023-12-20T04:07:52;6.28;87.06
18581;DHT22;9420;50.876;7.012;2023-12-20T04:10:19;6.27;87.34
18581;DHT22;9420;50.876;7.012;2023-12-20T04:12:45;6.38;86.78
18581;DHT22;9420;50.876;7.012;2023-12-20T04:15:12;6.45;86.47
18581;DHT22;9420;50.876;7.012;2023-12-20T04:17:38;6.35;86.58
18581;DHT22;9420;50.876;7.012;2023-12-20T04:20:07;6.28;87.19
18581;DHT22;9420;50.876;7.012;2023-12-20T04:22:35;6.34;87.03
18581;DHT22;9420;50.876;7.012;2023-12-20T04:25:01;6.32;86.81
18581;DHT22;9420;50.876;7.012;2023-12-20T04:27:28;6.32;87.01
18581;DHT22;9420;50.876;7.012;2023-12-20T04:29:55;6.32;86.79
18581;DHT22;9420;50.876;7.012;2023-12-20T04:32:22;6.41;86.57
18581;DHT22;9420;50.876;7.012;2023-12-20T04:34:48;6.46;86.39
18581;DHT22;9420;50.876;7.012;2023-12-20T04:37:15;6.45;86.21
18581;DHT22;9420;50.876;7.012;2023-12-20T04:39:43;6.42;86.40
18581;DHT22;9420;50.876;7.012;2023-12-20T04:42:09;6.39;86.38
18581;DHT22;9420;50.876;7.012;2023-12-20T04:44:36;6.38;86.12
18581;DHT22;9420;50.876;7.012;2023-12-20T04:47:03;6.32;86.41
18581;DHT22;9420;50.876;7.012;2023-12-20T04:49:30;6.21;86.82
18581;DHT22;9420;50.876;7.012;2023-12-20T04:51:56;6.20;86.63
18581;DHT22;9420;50.876;7.012;2023-12-20T04:54:23;6.16;86.64
18581;DHT22;9420;50.876;7.012;2023-12-20T04:56:51;6.16;86.58
18581;DHT22;9420;50.876;7.012;2023-12-20T04:59:17;6.00;87.15
18581;DHT22;9420;50.876;7.012;2023-12-20T05:01:44;5.98;86.95
18581;DHT22;9420;50.876;7.012;2023-12-20T05:04:11;6.08;86.65
18581;DHT22;9420;50.876;7.012;2023-12-20T05:06:37;6.13;86.48
18581;DHT22;9420;50.876;7.012;2023-12-20T05:09:04;6.08;86.44
18581;DHT22;9420;50.876;7.012;2023-12-20T05:11:30;6.01;86.54
18581;DHT22;9420;50.876;7.012;2023-12-20T05:13:58;6.00;86.58
18581;DHT22;9420;50.876;7.012;2023-12-20T05:16:25;6.04;86.26
18581;DHT22;9420;50.876;7.012;2023-12-20T05:18:51;5.97;86.31
18581;DHT22;9420;50.876;7.012;2023-12-20T05:21:18;5.98;86.14
18581;DHT22;9420;50.876;7.012;2023-12-20T05:23:45;6.03;86.15
18581;DHT22;9420;50.876;7.012;2023-12-20T05:26:12;6.01;86.43
18581;DHT22;9420;50.876;7.012;2023-12-20T05:28:38;5.98;86.41
18581;DHT22;9420;50.876;7.012;2023-12-20T05:31:06;6.04;86.16
18581;DHT22;9420;50.876;7.012;2023-12-20T05:33:33;6.08;86.35
18581;DHT22;9420;50.876;7.012;2023-12-20T05:36:00;5.97;86.51
18581;DHT22;9420;50.876;7.012;2023-12-20T05:38:26;6.03;86.53
18581;DHT22;9420;50.876;7.012;2023-12-20T05:40:53;6.10;86.30
18581;DHT22;9420;50.876;7.012;2023-12-20T05:43:20;6.11;86.36
18581;DHT22;9420;50.876;7.012;2023-12-20T05:45:46;6.04;86.53
18581;DHT22;9420;50.876;7.012;2023-12-20T05:48:14;6.00;86.55
18581;DHT22;9420;50.876;7.012;2023-12-20T05:50:41;5.91;86.75
18581;DHT22;9420;50.876;7.012;2023-12-20T05:53:07;5.93;86.78
18581;DHT22;9420;50.876;7.012;2023-12-20T05:55:34;6.00;86.49
18581;DHT22;9420;50.876;7.012;2023-12-20T05:58:00;6.10;86.21
18581;DHT22;9420;50.876;7.012;2023-12-20T06:00:27;6.07;86.19
18581;DHT22;9420;50.876;7.012;2023-12-20T06:02:54;6.04;86.63
18581;DHT22;9420;50.876;7.012;2023-12-20T06:05:22;6.11;86.49
18581;DHT22;9420;50.876;7.012;2023-12-20T06:07:49;6.16;86.66
18581;DHT22;9420;50.876;7.012;2023-12-20T06:10:16;6.20;86.98
18581;DHT22;9420;50.876;7.012;2023-12-20T06:12:43;6.22;86.53
18581;DHT22;9420;50.876;7.012;2023-12-20T06:15:12;6.16;86.72
18581;DHT22;9420;50.876;7.012;2023-12-20T06:17:39;6.13;87.13
18581;DHT22;9420;50.876;7.012;2023-12-20T06:20:07;6.17;86.74
18581;DHT22;9420;50.876;7.012;2023-12-20T06:22:35;6.14;87.00
18581;DHT22;9420;50.876;7.012;2023-12-20T06:25:02;6.21;86.57
18581;DHT22;9420;50.876;7.012;2023-12-20T06:27:29;6.21;86.68
18581;DHT22;9420;50.876;7.012;2023-12-20T06:29:57;6.31;86.24
18581;DHT22;9420;50.876;7.012;2023-12-20T06:32:24;6.27;86.22
18581;DHT22;9420;50.876;7.012;2023-12-20T06:34:51;6.31;86.14
18581;DHT22;9420;50.876;7.012;2023-12-20T06:37:17;6.27;86.41
18581;DHT22;9420;50.876;7.012;2023-12-20T06:39:45;6.37;85.93
18581;DHT22;9420;50.876;7.012;2023-12-20T06:42:12;6.31;86.08
18581;DHT22;9420;50.876;7.012;2023-12-20T06:44:39;6.32;86.14
18581;DHT22;9420;50.876;7.012;2023-12-20T06:47:06;6.35;86.00
18581;DHT22;9420;50.876;7.012;2023-12-20T06:49:32;6.35;85.82
18581;DHT22;9420;50.876;7.012;2023-12-20T06:51:59;6.29;86.26
18581;DHT22;9420;50.876;7.012;2023-12-20T06:54:25;6.29;86.30
18581;DHT22;9420;50.876;7.012;2023-12-20T06:56:53;6.37;85.96
18581;DHT22;9420;50.876;7.012;2023-12-20T06:59:20;6.34;86.12
18581;DHT22;9420;50.876;7.012;2023-12-20T07:01:48;6.35;86.28
18581;DHT22;9420;50.876;7.012;2023-12-20T07:04:16;6.31;86.06
18581;DHT22;9420;50.876;7.012;2023-12-20T07:06:45;6.38;85.89
18581;DHT22;9420;50.876;7.012;2023-12-20T07:09:13;6.52;85.21
18581;DHT22;9420;50.876;7.012;2023-12-20T07:11:40;6.49;85.20
18581;DHT22;9420;50.876;7.012;2023-12-20T07:14:09;6.50;85.29
18581;DHT22;9420;50.876;7.012;2023-12-20T07:16:35;6.53;84.95
18581;DHT22;9420;50.876;7.012;2023-12-20T07:19:02;6.56;85.03
18581;DHT22;9420;50.876;7.012;2023-12-20T07:21:29;6.55;85.03
18581;DHT22;9420;50.876;7.012;2023-12-20T07:23:55;6.55;85.02
18581;DHT22;9420;50.876;7.012;2023-12-20T07:26:22;6.56;84.74
18581;DHT22;9420;50.876;7.012;2023-12-20T07:28:49;6.59;84.69
18581;DHT22;9420;50.876;7.012;2023-12-20T07:31:17;6.50;85.23
18581;DHT22;9420;50.876;7.012;2023-12-20T07:33:44;6.59;84.65
18581;DHT22;9420;50.876;7.012;2023-12-20T07:36:10;6.72;83.65
18581;DHT22;9420;50.876;7.012;2023-12-20T07:38:37;6.68;84.12
18581;DHT22;9420;50.876;7.012;2023-12-20T07:41:04;6.71;83.98
18581;DHT22;9420;50.876;7.012;2023-12-20T07:43:31;6.76;83.85
18581;DHT22;9420;50.876;7.012;2023-12-20T07:46:04;6.61;84.70
18581;DHT22;9420;50.876;7.012;2023-12-20T07:48:32;6.68;84.39
18581;DHT22;9420;50.876;7.012;2023-12-20T07:50:59;6.69;84.41
18581;DHT22;9420;50.876;7.012;2023-12-20T07:53:26;6.71;84.20
18581;DHT22;9420;50.876;7.012;2023-12-20T07:55:52;6.64;84.66
18581;DHT22;9420;50.876;7.012;2023-12-20T07:58:19;6.65;84.64
18581;DHT22;9420;50.876;7.012;2023-12-20T08:00:46;6.72;84.30
18581;DHT22;9420;50.876;7.012;2023-12-20T08:03:13;6.64;84.73
18581;DHT22;9420;50.876;7.012;2023-12-20T08:05:41;6.68;84.59
18581;DHT22;9420;50.876;7.012;2023-12-20T08:08:08;6.68;84.32
18581;DHT22;9420;50.876;7.012;2023-12-20T08:10:35;6.72;84.17
18581;DHT22;9420;50.876;7.012;2023-12-20T08:13:02;6.72;84.06
18581;DHT22;9420;50.876;7.012;2023-12-20T08:15:28;6.73;84.21
18581;DHT22;9420;50.876;7.012;2023-12-20T08:17:55;6.79;84.03
18581;DHT22;9420;50.876;7.012;2023-12-20T08:20:21;6.71;84.58
18581;DHT22;9420;50.876;7.012;2023-12-20T08:22:49;6.79;84.02
18581;DHT22;9420;50.876;7.012;2023-12-20T08:25:16;6.83;84.04
18581;DHT22;9420;50.876;7.012;2023-12-20T08:27:43;6.86;83.81
18581;DHT22;9420;50.876;7.012;2023-12-20T08:30:10;6.83;83.69
18581;DHT22;9420;50.876;7.012;2023-12-20T08:32:37;6.80;83.83
18581;DHT22;9420;50.876;7.012;2023-12-20T08:35:05;6.80;83.89
18581;DHT22;9420;50.876;7.012;2023-12-20T08:37:31;6.73;84.09
18581;DHT22;9420;50.876;7.012;2023-12-20T08:39:59;6.79;83.90
18581;DHT22;9420;50.876;7.012;2023-12-20T08:42:26;6.77;83.91
18581;DHT22;9420;50.876;7.012;2023-12-20T08:44:56;6.82;83.84
18581;DHT22;9420;50.876;7.012;2023-12-20T08:47:23;6.86;83.84
18581;DHT22;9420;50.876;7.012;2023-12-20T08:49:50;6.83;84.03
18581;DHT22;9420;50.876;7.012;2023-12-20T08:52:17;6.92;84.03
18581;DHT22;9420;50.876;7.012;2023-12-20T08:54:44;6.97;83.55
18581;DHT22;9420;50.876;7.012;2023-12-20T08:57:12;7.03;83.33
18581;DHT22;9420;50.876;7.012;2023-12-20T08:59:39;7.06;82.99
18581;DHT22;9420;50.876;7.012;2023-12-20T09:02:05;7.00;83.31
18581;DHT22;9420;50.876;7.012;2023-12-20T09:04:32;6.97;83.62
18581;DHT22;9420;50.876;7.012;2023-12-20T09:07:01;6.96;83.67
18581;DHT22;9420;50.876;7.012;2023-12-20T09:09:27;6.99;83.27
18581;DHT22;9420;50.876;7.012;2023-12-20T09:11:54;6.94;83.61
18581;DHT22;9420;50.876;7.012;2023-12-20T09:14:22;6.93;83.81
18581;DHT22;9420;50.876;7.012;2023-12-20T09:16:49;6.94;83.76
18581;DHT22;9420;50.876;7.012;2023-12-20T09:19:16;7.01;83.36
18581;DHT22;9420;50.876;7.012;2023-12-20T09:21:43;6.97;83.41
18581;DHT22;9420;50.876;7.012;2023-12-20T09:24:10;7.06;83.23
18581;DHT22;9420;50.876;7.012;2023-12-20T09:26:36;6.94;83.48
18581;DHT22;9420;50.876;7.012;2023-12-20T09:29:05;7.00;83.40
18581;DHT22;9420;50.876;7.012;2023-12-20T09:31:36;6.94;83.48
18581;DHT22;9420;50.876;7.012;2023-12-20T09:34:02;7.13;82.79
18581;DHT22;9420;50.876;7.012;2023-12-20T09:36:29;7.10;82.90
18581;DHT22;9420;50.876;7.012;2023-12-20T09:38:59;7.04;83.35
18581;DHT22;9420;50.876;7.012;2023-12-20T09:41:27;7.06;83.10
18581;DHT22;9420;50.876;7.012;2023-12-20T09:43:56;7.06;83.34
18581;DHT22;9420;50.876;7.012;2023-12-20T09:46:26;7.03;83.08
18581;DHT22;9420;50.876;7.012;2023-12-20T09:48:58;7.04;83.53
18581;DHT22;9420;50.876;7.012;2023-12-20T09:51:26;7.10;83.34
18581;DHT22;9420;50.876;7.012;2023-12-20T09:53:54;7.07;83.51
18581;DHT22;9420;50.876;7.012;2023-12-20T09:56:23;7.13;83.18
18581;DHT22;9420;50.876;7.012;2023-12-20T09:58:51;7.17;83.51
18581;DHT22;9420;50.876;7.012;2023-12-20T10:01:19;7.14;83.50
18581;DHT22;9420;50.876;7.012;2023-12-20T10:03:46;7.24;83.31
18581;DHT22;9420;50.876;7.012;2023-12-20T10:06:14;7.23;83.16
18581;DHT22;9420;50.876;7.012;2023-12-20T10:08:41;7.15;83.72
18581;DHT22;9420;50.876;7.012;2023-12-20T10:11:09;7.15;83.74
18581;DHT22;9420;50.876;7.012;2023-12-20T10:13:39;7.23;83.57
18581;DHT22;9420;50.876;7.012;2023-12-20T10:16:06;7.25;83.33
18581;DHT22;9420;50.876;7.012;2023-12-20T10:18:33;7.28;83.68
18581;DHT22;9420;50.876;7.012;2023-12-20T10:21:00;7.28;83.31
18581;DHT22;9420;50.876;7.012;2023-12-20T10:23:29;7.24;83.70
18581;DHT22;9420;50.876;7.012;2023-12-20T10:25:56;7.21;83.22
18581;DHT22;9420;50.876;7.012;2023-12-20T10:28:23;7.28;82.64
18581;DHT22;9420;50.876;7.012;2023-12-20T10:30:53;7.31;82.94
18581;DHT22;9420;50.876;7.012;2023-12-20T10:33:24;7.32;83.11
18581;DHT22;9420;50.876;7.012;2023-12-20T10:35:52;7.38;82.95
18581;DHT22;9420;50.876;7.012;2023-12-20T10:38:18;7.43;82.80
18581;DHT22;9420;50.876;7.012;2023-12-20T10:40:46;7.41;82.72
18581;DHT22;9420;50.876;7.012;2023-12-20T10:43:14;7.47;82.79
18581;DHT22;9420;50.876;7.012;2023-12-20T10:45:42;7.35;83.00
18581;DHT22;9420;50.876;7.012;2023-12-20T10:48:10;7.44;82.70
18581;DHT22;9420;50.876;7.012;2023-12-20T10:50:38;7.35;83.26
18581;DHT22;9420;50.876;7.012;2023-12-20T10:53:06;7.50;82.48
18581;DHT22;9420;50.876;7.012;2023-12-20T10:55:33;7.40;83.34
18581;DHT22;9420;50.876;7.012;2023-12-20T10:58:02;7.45;82.94
18581;DHT22;9420;50.876;7.012;2023-12-20T11:00:35;7.36;83.19
18581;DHT22;9420;50.876;7.012;2023-12-20T11:03:02;7.48;82.61
18581;DHT22;9420;50.876;7.012;2023-12-20T11:05:40;7.50;82.86
18581;DHT22;9420;50.876;7.012;2023-12-20T11:08:12;7.48;83.18
18581;DHT22;9420;50.876;7.012;2023-12-20T11:10:47;7.47;82.90
18581;DHT22;9420;50.876;7.012;2023-12-20T11:13:22;7.47;83.02
18581;DHT22;9420;50.876;7.012;2023-12-20T11:15:49;7.54;82.96
18581;DHT22;9420;50.876;7.012;2023-12-20T11:18:16;7.59;82.32
18581;DHT22;9420;50.876;7.012;2023-12-20T11:20:43;7.51;82.99
18581;DHT22;9420;50.876;7.012;2023-12-20T11:23:10;7.50;83.23
18581;DHT22;9420;50.876;7.012;2023-12-20T11:25:52;7.56;82.73
18581;DHT22;9420;50.876;7.012;2023-12-20T11:28:23;7.68;82.43
18581;DHT22;9420;50.876;7.012;2023-12-20T11:30:51;7.58;82.67
18581;DHT22;9420;50.876;7.012;2023-12-20T11:33:21;7.58;82.91
18581;DHT22;9420;50.876;7.012;2023-12-20T11:35:48;7.66;82.33
18581;DHT22;9420;50.876;7.012;2023-12-20T11:38:15;7.71;82.68
18581;DHT22;9420;50.876;7.012;2023-12-20T11:40:42;7.64;82.66
18581;DHT22;9420;50.876;7.012;2023-12-20T11:43:10;7.66;82.72
18581;DHT22;9420;50.876;7.012;2023-12-20T11:45:49;7.64;83.07
18581;DHT22;9420;50.876;7.012;2023-12-20T11:48:15;7.78;82.85
18581;DHT22;9420;50.876;7.012;2023-12-20T11:50:42;7.79;82.14
18581;DHT22;9420;50.876;7.012;2023-12-20T11:53:10;7.78;82.27
18581;DHT22;9420;50.876;7.012;2023-12-20T11:55:36;7.76;82.67
18581;DHT22;9420;50.876;7.012;2023-12-20T11:58:03;7.66;83.20
18581;DHT22;9420;50.876;7.012;2023-12-20T12:00:30;7.72;82.66
18581;DHT22;9420;50.876;7.012;2023-12-20T12:02:58;7.68;82.34
18581;DHT22;9420;50.876;7.012;2023-12-20T12:05:27;7.65;82.59
18581;DHT22;9420;50.876;7.012;2023-12-20T12:07:54;7.59;82.79
18581;DHT22;9420;50.876;7.012;2023-12-20T12:10:21;7.56;83.16
18581;DHT22;9420;50.876;7.012;2023-12-20T12:12:48;7.61;82.69
18581;DHT22;9420;50.876;7.012;2023-12-20T12:15:15;7.61;82.71
18581;DHT22;9420;50.876;7.012;2023-12-20T12:17:41;7.66;82.50
18581;DHT22;9420;50.876;7.012;2023-12-20T12:20:10;7.54;82.99
18581;DHT22;9420;50.876;7.012;2023-12-20T12:22:37;7.62;82.85
18581;DHT22;9420;50.876;7.012;2023-12-20T12:25:12;7.64;82.84
18581;DHT22;9420;50.876;7.012;2023-12-20T12:27:43;7.65;82.50
18581;DHT22;9420;50.876;7.012;2023-12-20T12:30:10;7.64;83.18
18581;DHT22;9420;50.876;7.012;2023-12-20T12:32:38;7.58;83.58
18581;DHT22;9420;50.876;7.012;2023-12-20T12:35:07;7.56;83.42
18581;DHT22;9420;50.876;7.012;2023-12-20T12:37:38;7.48;83.98
18581;DHT22;9420;50.876;7.012;2023-12-20T12:40:06;7.54;83.65
18581;DHT22;9420;50.876;7.012;2023-12-20T12:42:33;7.56;83.58
18581;DHT22;9420;50.876;7.012;2023-12-20T12:45:00;7.68;83.28
18581;DHT22;9420;50.876;7.012;2023-12-20T12:47:26;7.69;83.18
18581;DHT22;9420;50.876;7.012;2023-12-20T12:49:54;7.69;82.99
18581;DHT22;9420;50.876;7.012;2023-12-20T12:52:20;7.68;83.23
18581;DHT22;9420;50.876;7.012;2023-12-20T12:54:49;7.71;83.04
18581;DHT22;9420;50.876;7.012;2023-12-20T12:57:15;7.66;83.47
18581;DHT22;9420;50.876;7.012;2023-12-20T12:59:43;7.73;82.85
18581;DHT22;9420;50.876;7.012;2023-12-20T13:02:09;7.71;83.04
18581;DHT22;9420;50.876;7.012;2023-12-20T13:04:36;7.69;83.45
18581;DHT22;9420;50.876;7.012;2023-12-20T13:07:02;7.72;83.37
18581;DHT22;9420;50.876;7.012;2023-12-20T13:09:29;7.66;83.40
18581;DHT22;9420;50.876;7.012;2023-12-20T13:11:58;7.66;83.66
18581;DHT22;9420;50.876;7.012;2023-12-20T13:14:27;7.52;84.70
18581;DHT22;9420;50.876;7.012;2023-12-20T13:16:54;7.40;85.11
18581;DHT22;9420;50.876;7.012;2023-12-20T13:19:21;7.30;85.65
18581;DHT22;9420;50.876;7.012;2023-12-20T13:21:47;7.14;86.49
18581;DHT22;9420;50.876;7.012;2023-12-20T13:24:14;7.08;86.60
18581;DHT22;9420;50.876;7.012;2023-12-20T13:26:41;7.07;86.86
18581;DHT22;9420;50.876;7.012;2023-12-20T13:29:09;7.11;86.22
18581;DHT22;9420;50.876;7.012;2023-12-20T13:31:35;7.15;86.25
18581;DHT22;9420;50.876;7.012;2023-12-20T13:34:03;7.14;86.05
18581;DHT22;9420;50.876;7.012;2023-12-20T13:36:29;7.07;86.35
18581;DHT22;9420;50.876;7.012;2023-12-20T13:38:56;7.08;86.81
18581;DHT22;9420;50.876;7.012;2023-12-20T13:41:22;7.08;86.62
18581;DHT22;9420;50.876;7.012;2023-12-20T13:43:49;7.07;86.51
18581;DHT22;9420;50.876;7.012;2023-12-20T13:46:17;7.07;87.08
18581;DHT22;9420;50.876;7.012;2023-12-20T13:48:44;7.13;86.58
18581;DHT22;9420;50.876;7.012;2023-12-20T13:51:11;7.20;86.39
18581;DHT22;9420;50.876;7.012;2023-12-20T13:53:37;7.24;85.92
18581;DHT22;9420;50.876;7.012;2023-12-20T13:56:05;7.28;85.56
18581;DHT22;9420;50.876;7.012;2023-12-20T13:58:32;7.31;85.56
18581;DHT22;9420;50.876;7.012;2023-12-20T14:00:58;7.27;85.81
18581;DHT22;9420;50.876;7.012;2023-12-20T14:03:26;7.24;85.94
18581;DHT22;9420;50.876;7.012;2023-12-20T14:05:53;7.23;85.76
18581;DHT22;9420;50.876;7.012;2023-12-20T14:08:19;7.31;85.30
18581;DHT22;9420;50.876;7.012;2023-12-20T14:10:46;7.31;85.55
18581;DHT22;9420;50.876;7.012;2023-12-20T14:13:14;7.32;85.47
18581;DHT22;9420;50.876;7.012;2023-12-20T14:15:40;7.35;85.33
18581;DHT22;9420;50.876;7.012;2023-12-20T14:18:07;7.41;84.98
18581;DHT22;9420;50.876;7.012;2023-12-20T14:20:35;7.45;84.96
18581;DHT22;9420;50.876;7.012;2023-12-20T14:23:04;7.38;85.32
18581;DHT22;9420;50.876;7.012;2023-12-20T14:25:31;7.41;85.29
18581;DHT22;9420;50.876;7.012;2023-12-20T14:27:57;7.48;85.08
18581;DHT22;9420;50.876;7.012;2023-12-20T14:30:25;7.54;84.82
18581;DHT22;9420;50.876;7.012;2023-12-20T14:32:51;7.55;84.63
18581;DHT22;9420;50.876;7.012;2023-12-20T14:35:18;7.51;85.10
18581;DHT22;9420;50.876;7.012;2023-12-20T14:37:46;7.51;84.90
18581;DHT22;9420;50.876;7.012;2023-12-20T14:40:13;7.65;84.56
18581;DHT22;9420;50.876;7.012;2023-12-20T14:42:41;7.62;84.45
18581;DHT22;9420;50.876;7.012;2023-12-20T14:45:09;7.62;84.48
18581;DHT22;9420;50.876;7.012;2023-12-20T14:47:35;7.72;84.21
18581;DHT22;9420;50.876;7.012;2023-12-20T14:50:02;7.71;84.38
18581;DHT22;9420;50.876;7.012;2023-12-20T14:52:29;7.73;84.35
18581;DHT22;9420;50.876;7.012;2023-12-20T14:54:57;7.71;84.53
18581;DHT22;9420;50.876;7.012;2023-12-20T14:57:24;7.66;84.61
18581;DHT22;9420;50.876;7.012;2023-12-20T14:59:51;7.76;84.19
18581;DHT22;9420;50.876;7.012;2023-12-20T15:02:18;7.79;84.48
18581;DHT22;9420;50.876;7.012;2023-12-20T15:04:45;7.75;84.40
18581;DHT22;9420;50.876;7.012;2023-12-20T15:07:11;7.73;84.54
18581;DHT22;9420;50.876;7.012;2023-12-20T15:09:38;7.78;84.45
18581;DHT22;9420;50.876;7.012;2023-12-20T15:12:07;7.73;84.95
18581;DHT22;9420;50.876;7.012;2023-12-20T15:14:34;7.69;84.87
18581;DHT22;9420;50.876;7.012;2023-12-20T15:17:01;7.71;84.86
18581;DHT22;9420;50.876;7.012;2023-12-20T15:19:27;7.79;84.51
18581;DHT22;9420;50.876;7.012;2023-12-20T15:21:54;7.81;84.62
18581;DHT22;9420;50.876;7.012;2023-12-20T15:24:20;7.82;84.42
18581;DHT22;9420;50.876;7.012;2023-12-20T15:26:54;7.85;84.35
18581;DHT22;9420;50.876;7.012;2023-12-20T15:29:22;7.79;84.62
18581;DHT22;9420;50.876;7.012;2023-12-20T15:31:49;7.82;84.45
18581;DHT22;9420;50.876;7.012;2023-12-20T15:34:16;7.81;84.54
18581;DHT22;9420;50.876;7.012;2023-12-20T15:36:42;7.82;84.62
18581;DHT22;9420;50.876;7.012;2023-12-20T15:39:09;7.76;84.91
18581;DHT22;9420;50.876;7.012;2023-12-20T15:41:39;7.76;85.03
18581;DHT22;9420;50.876;7.012;2023-12-20T15:44:06;7.65;85.42
18581;DHT22;9420;50.876;7.012;2023-12-20T15:46:34;7.65;85.23
18581;DHT22;9420;50.876;7.012;2023-12-20T15:49:01;7.72;84.95
18581;DHT22;9420;50.876;7.012;2023-12-20T15:51:27;7.69;84.83
18581;DHT22;9420;50.876;7.012;2023-12-20T15:53:54;7.69;84.95
18581;DHT22;9420;50.876;7.012;2023-12-20T15:56:20;7.71;84.81
18581;DHT22;9420;50.876;7.012;2023-12-20T15:58:47;7.69;84.99
18581;DHT22;9420;50.876;7.012;2023-12-20T16:01:16;7.66;85.15